createdAt,value
2018-12-25T00:00:03.833Z,0
2018-12-25T00:01:03.617Z,1.1
2018-12-25T00:02:03.748Z,1.1
2018-12-25T00:03:03.018Z,2.5
2018-12-25T00:04:03.271Z,3.6
2018-12-25T00:05:03.067Z,2.5
2018-12-25T00:06:03.549Z,3.6
2018-12-25T00:07:03.708Z,3.6
2018-12-25T00:08:03.377Z,3.6
2018-12-25T00:09:03.436Z,3.6
2018-12-25T00:10:03.321Z,3.6
2018-12-25T00:11:03.247Z,3.6
2018-12-25T00:12:03.276Z,5
2018-12-25T00:13:03.466Z,5
2018-12-25T00:14:03.731Z,3.6
2018-12-25T00:15:03.954Z,3.6
2018-12-25T00:16:07.631Z,3.6
2018-12-25T00:17:03.266Z,3.6
2018-12-25T00:18:03.696Z,3.6
2018-12-25T00:19:06.801Z,3.6
2018-12-25T00:20:03.531Z,3.6
2018-12-25T00:22:03.423Z,3.6
2018-12-25T00:23:03.868Z,6.1
2018-12-25T00:24:04.204Z,6.1
2018-12-25T00:25:03.931Z,6.1
2018-12-25T00:26:03.396Z,5
2018-12-25T00:27:03.237Z,6.1
2018-12-25T00:28:03.259Z,5
2018-12-25T00:29:03.121Z,6.1
2018-12-25T00:30:03.126Z,6.1
2018-12-25T00:31:03.268Z,6.1
2018-12-25T00:32:03.097Z,6.1
2018-12-25T00:33:02.989Z,5
2018-12-25T00:34:03.315Z,5
2018-12-25T00:35:03.988Z,6.1
2018-12-25T00:36:03.473Z,5
2018-12-25T00:37:03.272Z,5
2018-12-25T00:38:03.239Z,6.1
2018-12-25T00:39:03.657Z,5
2018-12-25T00:40:04.075Z,3.6
2018-12-25T00:41:03.814Z,3.6
2018-12-25T00:42:02.863Z,3.6
2018-12-25T00:43:02.952Z,5
2018-12-25T00:44:03.403Z,5
2018-12-25T00:45:03.630Z,5
2018-12-25T00:46:04.013Z,3.6
2018-12-25T00:47:03.815Z,6.1
2018-12-25T00:48:03.102Z,6.1
2018-12-25T00:49:02.944Z,6.1
2018-12-25T00:50:03.885Z,7.2
2018-12-25T00:51:03.346Z,6.1
2018-12-25T00:52:03.461Z,6.1
2018-12-25T00:53:03.694Z,7.2
2018-12-25T00:54:03.707Z,7.2
2018-12-25T00:55:03.449Z,6.1
2018-12-25T00:56:03.482Z,6.1
2018-12-25T00:57:03.611Z,7.2
2018-12-25T00:58:03.088Z,6.1
2018-12-25T00:59:03.906Z,6.1
2018-12-25T01:00:03.384Z,7.2
2018-12-25T01:01:03.545Z,7.2
2018-12-25T01:02:03.788Z,7.2
2018-12-25T01:03:02.818Z,7.2
2018-12-25T01:04:03.670Z,7.2
2018-12-25T01:05:03.539Z,7.2
2018-12-25T01:06:03.132Z,7.2
2018-12-25T01:07:04.726Z,7.2
2018-12-25T01:08:03.264Z,7.2
2018-12-25T01:09:02.962Z,8.6
2018-12-25T01:10:03.866Z,7.2
2018-12-25T01:11:03.667Z,7.2
2018-12-25T01:12:03.414Z,9.7
2018-12-25T01:13:03.412Z,9.7
2018-12-25T01:14:03.849Z,6.1
2018-12-25T01:15:03.163Z,7.2
2018-12-25T01:16:04.026Z,8.6
2018-12-25T01:17:03.226Z,9.7
2018-12-25T01:18:03.860Z,12.2
2018-12-25T01:19:03.642Z,9.7
2018-12-25T01:20:03.627Z,8.6
2018-12-25T01:21:03.159Z,7.2
2018-12-25T01:22:03.572Z,8.6
2018-12-25T01:23:03.454Z,8.6
2018-12-25T01:24:03.860Z,8.6
2018-12-25T01:25:03.308Z,8.6
2018-12-25T01:26:03.255Z,8.6
2018-12-25T01:27:03.212Z,9.7
2018-12-25T01:28:03.629Z,6.1
2018-12-25T01:29:03.235Z,6.1
2018-12-25T01:30:03.816Z,7.2
2018-12-25T01:31:03.130Z,7.2
2018-12-25T01:32:03.399Z,9.7
2018-12-25T01:33:03.639Z,7.2
2018-12-25T01:34:03.559Z,6.1
2018-12-25T01:35:03.493Z,6.1
2018-12-25T01:36:03.385Z,7.2
2018-12-25T01:37:02.982Z,8.6
2018-12-25T01:38:04.187Z,8.6
2018-12-25T01:39:02.946Z,7.2
2018-12-25T01:40:03.802Z,7.2
2018-12-25T01:41:03.422Z,7.2
2018-12-25T01:42:03.907Z,6.1
2018-12-25T01:43:03.340Z,6.1
2018-12-25T01:44:03.727Z,6.1
2018-12-25T01:45:03.511Z,6.1
2018-12-25T01:46:04.037Z,5
2018-12-25T01:47:03.274Z,3.6
2018-12-25T01:48:03.852Z,5
2018-12-25T01:49:03.498Z,5
2018-12-25T01:50:03.631Z,5
2018-12-25T01:51:03.203Z,5
2018-12-25T01:52:03.782Z,3.6
2018-12-25T01:53:03.392Z,3.6
2018-12-25T01:54:03.675Z,2.5
2018-12-25T01:55:04.432Z,3.6
2018-12-25T01:56:03.534Z,3.6
2018-12-25T01:57:02.980Z,2.5
2018-12-25T01:58:03.790Z,3.6
2018-12-25T01:59:02.990Z,3.6
2018-12-25T02:00:03.424Z,3.6
2018-12-25T02:01:03.160Z,3.6
2018-12-25T02:02:03.718Z,3.6
2018-12-25T02:03:03.869Z,5
2018-12-25T02:04:03.798Z,3.6
2018-12-25T02:05:03.969Z,5
2018-12-25T02:06:03.913Z,3.6
2018-12-25T02:07:03.191Z,5
2018-12-25T02:08:03.621Z,5
2018-12-25T02:09:03.759Z,3.6
2018-12-25T02:10:04.003Z,3.6
2018-12-25T02:11:03.340Z,5
2018-12-25T02:12:03.406Z,5
2018-12-25T02:13:03.138Z,3.6
2018-12-25T02:14:03.569Z,3.6
2018-12-25T02:15:03.654Z,5
2018-12-25T02:16:03.398Z,5
2018-12-25T02:17:03.331Z,5
2018-12-25T02:18:03.188Z,6.1
2018-12-25T02:19:03.125Z,6.1
2018-12-25T02:20:03.257Z,6.1
2018-12-25T02:21:03.443Z,6.1
2018-12-25T02:22:03.734Z,6.1
2018-12-25T02:23:03.645Z,6.1
2018-12-25T02:24:03.161Z,6.1
2018-12-25T02:25:03.339Z,6.1
2018-12-25T02:26:03.567Z,7.2
2018-12-25T02:27:03.835Z,6.1
2018-12-25T02:28:03.115Z,6.1
2018-12-25T02:29:02.892Z,6.1
2018-12-25T02:30:03.296Z,6.1
2018-12-25T02:31:03.351Z,6.1
2018-12-25T02:32:03.738Z,6.1
2018-12-25T02:33:03.347Z,7.2
2018-12-25T02:34:03.596Z,7.2
2018-12-25T02:35:03.997Z,7.2
2018-12-25T02:36:03.691Z,8.6
2018-12-25T02:37:03.261Z,8.6
2018-12-25T02:38:03.754Z,7.2
2018-12-25T02:39:03.531Z,8.6
2018-12-25T02:40:03.074Z,7.2
2018-12-25T02:41:03.314Z,8.6
2018-12-25T02:42:03.283Z,7.2
2018-12-25T02:43:03.374Z,9.7
2018-12-25T02:44:03.690Z,7.2
2018-12-25T02:45:03.878Z,11.2
2018-12-25T02:46:03.564Z,9.7
2018-12-25T02:47:03.466Z,8.6
2018-12-25T02:48:03.403Z,9.7
2018-12-25T02:49:03.013Z,9.7
2018-12-25T02:50:03.970Z,9.7
2018-12-25T02:51:03.934Z,8.6
2018-12-25T02:52:03.957Z,9.7
2018-12-25T02:53:04.025Z,9.7
2018-12-25T02:54:03.668Z,9.7
2018-12-25T02:55:03.284Z,8.6
2018-12-25T02:56:03.405Z,9.7
2018-12-25T02:57:03.454Z,9.7
2018-12-25T02:58:03.195Z,8.6
2018-12-25T02:59:03.096Z,8.6
2018-12-25T03:00:03.789Z,8.6
2018-12-25T03:01:04.101Z,8.6
2018-12-25T03:02:03.241Z,8.6
2018-12-25T03:03:03.946Z,8.6
2018-12-25T03:04:03.186Z,8.6
2018-12-25T03:05:03.390Z,8.6
2018-12-25T03:06:03.946Z,8.6
2018-12-25T03:07:03.563Z,8.6
2018-12-25T03:08:03.604Z,8.6
2018-12-25T03:09:03.351Z,8.6
2018-12-25T03:10:03.712Z,11.2
2018-12-25T03:11:03.540Z,9.7
2018-12-25T03:12:03.239Z,8.6
2018-12-25T03:13:04.004Z,11.2
2018-12-25T03:14:03.549Z,11.2
2018-12-25T03:15:03.447Z,11.2
2018-12-25T03:16:04.051Z,12.2
2018-12-25T03:17:03.063Z,11.2
2018-12-25T03:18:03.519Z,12.2
2018-12-25T03:19:03.451Z,11.2
2018-12-25T03:20:03.342Z,11.2
2018-12-25T03:21:03.213Z,13.3
2018-12-25T03:22:04.689Z,9.7
2018-12-25T03:23:03.468Z,9.7
2018-12-25T03:24:02.881Z,9.7
2018-12-25T03:25:03.044Z,9.7
2018-12-25T03:26:03.332Z,9.7
2018-12-25T03:27:03.501Z,11.2
2018-12-25T03:28:02.924Z,11.2
2018-12-25T03:29:03.343Z,9.7
2018-12-25T03:30:03.920Z,8.6
2018-12-25T03:31:03.875Z,11.2
2018-12-25T03:32:03.495Z,8.6
2018-12-25T03:33:03.019Z,8.6
2018-12-25T03:34:03.643Z,8.6
2018-12-25T03:35:03.859Z,9.7
2018-12-25T03:36:03.491Z,9.7
2018-12-25T03:37:03.254Z,8.6
2018-12-25T03:38:03.315Z,7.2
2018-12-25T03:39:03.317Z,8.6
2018-12-25T03:40:03.243Z,9.7
2018-12-25T03:41:03.665Z,8.6
2018-12-25T03:42:03.565Z,8.6
2018-12-25T03:43:03.427Z,8.6
2018-12-25T03:44:03.695Z,8.6
2018-12-25T03:45:03.389Z,6.1
2018-12-25T03:46:03.537Z,7.2
2018-12-25T03:47:03.325Z,7.2
2018-12-25T03:48:03.308Z,7.2
2018-12-25T03:49:03.522Z,7.2
2018-12-25T03:50:11.662Z,8.6
2018-12-25T03:51:03.114Z,8.6
2018-12-25T03:52:03.505Z,8.6
2018-12-25T03:53:03.603Z,7.2
2018-12-25T03:54:03.249Z,6.1
2018-12-25T03:55:03.251Z,7.2
2018-12-25T03:56:03.601Z,7.2
2018-12-25T03:58:03.312Z,7.2
2018-12-25T03:59:03.261Z,7.2
2018-12-25T04:00:03.686Z,8.6
2018-12-25T04:01:03.488Z,6.1
2018-12-25T04:02:03.919Z,7.2
2018-12-25T04:03:03.557Z,7.2
2018-12-25T04:04:03.509Z,7.2
2018-12-25T04:05:03.577Z,7.2
2018-12-25T04:06:04.020Z,6.1
2018-12-25T04:07:03.821Z,7.2
2018-12-25T04:08:03.267Z,7.2
2018-12-25T04:09:03.363Z,6.1
2018-12-25T04:10:03.944Z,6.1
2018-12-25T04:11:03.786Z,7.2
2018-12-25T04:12:03.040Z,7.2
2018-12-25T04:13:03.336Z,8.6
2018-12-25T04:14:03.248Z,8.6
2018-12-25T04:15:03.459Z,8.6
2018-12-25T04:16:04.139Z,8.6
2018-12-25T04:17:03.577Z,7.2
2018-12-25T04:18:03.544Z,8.6
2018-12-25T04:19:03.368Z,7.2
2018-12-25T04:20:03.843Z,7.2
2018-12-25T04:21:03.880Z,7.2
2018-12-25T04:22:03.510Z,7.2
2018-12-25T04:23:03.569Z,8.6
2018-12-25T04:24:03.935Z,7.2
2018-12-25T04:25:03.260Z,8.6
2018-12-25T04:26:03.594Z,8.6
2018-12-25T04:27:03.381Z,8.6
2018-12-25T04:28:03.093Z,8.6
2018-12-25T04:29:03.146Z,9.7
2018-12-25T04:30:04.111Z,8.6
2018-12-25T04:31:03.757Z,8.6
2018-12-25T04:32:03.304Z,8.6
2018-12-25T04:33:03.711Z,8.6
2018-12-25T04:34:03.791Z,8.6
2018-12-25T04:35:02.854Z,7.2
2018-12-25T04:36:03.996Z,8.6
2018-12-25T04:37:03.504Z,8.6
2018-12-25T04:38:03.456Z,7.2
2018-12-25T04:39:03.521Z,8.6
2018-12-25T04:40:03.725Z,8.6
2018-12-25T04:41:03.390Z,8.6
2018-12-25T04:42:03.755Z,7.2
2018-12-25T04:43:03.018Z,7.2
2018-12-25T04:44:03.600Z,8.6
2018-12-25T04:45:03.611Z,7.2
2018-12-25T04:46:04.476Z,7.2
2018-12-25T04:47:03.714Z,6.1
2018-12-25T04:48:03.431Z,6.1
2018-12-25T04:49:03.720Z,6.1
2018-12-25T04:50:03.667Z,6.1
2018-12-25T04:51:03.647Z,7.2
2018-12-25T04:52:03.583Z,7.2
2018-12-25T04:53:03.348Z,7.2
2018-12-25T04:54:03.631Z,7.2
2018-12-25T04:55:04.111Z,7.2
2018-12-25T04:56:03.916Z,7.2
2018-12-25T04:57:03.356Z,7.2
2018-12-25T04:58:03.560Z,7.2
2018-12-25T04:59:03.052Z,7.2
2018-12-25T05:00:03.599Z,7.2
2018-12-25T05:02:03.903Z,7.2
2018-12-25T05:03:03.902Z,7.2
2018-12-25T05:04:02.968Z,7.2
2018-12-25T05:05:03.280Z,7.2
2018-12-25T05:06:03.044Z,7.2
2018-12-25T05:07:03.436Z,7.2
2018-12-25T05:08:03.428Z,7.2
2018-12-25T05:09:03.423Z,7.2
2018-12-25T05:10:03.990Z,7.2
2018-12-25T05:11:03.012Z,7.2
2018-12-25T05:12:03.588Z,7.2
2018-12-25T05:13:03.622Z,6.1
2018-12-25T05:14:03.348Z,8.6
2018-12-25T05:15:03.370Z,7.2
2018-12-25T05:16:04.650Z,7.2
2018-12-25T05:17:03.950Z,7.2
2018-12-25T05:18:03.257Z,8.6
2018-12-25T05:19:03.901Z,8.6
2018-12-25T05:20:03.227Z,8.6
2018-12-25T05:21:03.775Z,8.6
2018-12-25T05:22:03.614Z,8.6
2018-12-25T05:23:03.900Z,8.6
2018-12-25T05:24:03.165Z,8.6
2018-12-25T05:25:03.602Z,8.6
2018-12-25T05:26:03.210Z,8.6
2018-12-25T05:27:03.190Z,9.7
2018-12-25T05:28:03.480Z,9.7
2018-12-25T05:29:03.155Z,9.7
2018-12-25T05:30:03.595Z,9.7
2018-12-25T05:31:03.887Z,8.6
2018-12-25T05:32:03.891Z,8.6
2018-12-25T05:33:03.407Z,8.6
2018-12-25T05:34:03.681Z,8.6
2018-12-25T05:35:03.745Z,8.6
2018-12-25T05:36:03.341Z,8.6
2018-12-25T05:37:03.761Z,8.6
2018-12-25T05:38:03.189Z,8.6
2018-12-25T05:39:04.074Z,8.6
2018-12-25T05:40:03.630Z,8.6
2018-12-25T05:41:03.231Z,8.6
2018-12-25T05:42:03.906Z,7.2
2018-12-25T05:43:03.107Z,8.6
2018-12-25T05:44:02.950Z,7.2
2018-12-25T05:45:03.513Z,6.1
2018-12-25T05:46:03.326Z,7.2
2018-12-25T05:47:03.214Z,7.2
2018-12-25T05:48:03.364Z,7.2
2018-12-25T05:49:03.803Z,8.6
2018-12-25T05:50:03.835Z,7.2
2018-12-25T05:51:03.353Z,7.2
2018-12-25T05:52:03.290Z,7.2
2018-12-25T05:53:03.015Z,7.2
2018-12-25T05:54:03.784Z,7.2
2018-12-25T05:55:02.980Z,6.1
2018-12-25T05:56:03.297Z,6.1
2018-12-25T05:57:03.682Z,6.1
2018-12-25T05:58:03.731Z,6.1
2018-12-25T05:59:03.533Z,6.1
2018-12-25T06:00:04.196Z,6.1
2018-12-25T06:01:03.337Z,6.1
2018-12-25T06:02:03.946Z,6.1
2018-12-25T06:03:03.301Z,6.1
2018-12-25T06:04:03.474Z,6.1
2018-12-25T06:05:03.592Z,6.1
2018-12-25T06:06:03.296Z,6.1
2018-12-25T06:07:03.637Z,6.1
2018-12-25T06:08:03.445Z,5
2018-12-25T06:09:03.733Z,5
2018-12-25T06:10:03.479Z,6.1
2018-12-25T06:11:03.079Z,6.1
2018-12-25T06:12:03.674Z,6.1
2018-12-25T06:13:03.713Z,6.1
2018-12-25T06:14:03.356Z,6.1
2018-12-25T06:15:03.956Z,6.1
2018-12-25T06:16:03.460Z,6.1
2018-12-25T06:17:03.742Z,6.1
2018-12-25T06:18:03.520Z,6.1
2018-12-25T06:19:03.960Z,6.1
2018-12-25T06:20:03.498Z,6.1
2018-12-25T06:21:03.225Z,6.1
2018-12-25T06:22:03.751Z,7.2
2018-12-25T06:23:03.060Z,6.1
2018-12-25T06:24:03.135Z,6.1
2018-12-25T06:25:03.589Z,6.1
2018-12-25T06:26:03.330Z,7.2
2018-12-25T06:27:03.513Z,5
2018-12-25T06:28:03.392Z,6.1
2018-12-25T06:29:02.997Z,8.6
2018-12-25T06:30:03.024Z,6.1
2018-12-25T06:31:03.457Z,2.5
2018-12-25T06:32:03.759Z,5
2018-12-25T06:33:03.317Z,6.1
2018-12-25T06:34:03.272Z,6.1
2018-12-25T06:35:03.165Z,6.1
2018-12-25T06:36:03.293Z,6.1
2018-12-25T06:37:03.808Z,6.1
2018-12-25T06:38:03.212Z,5
2018-12-25T06:39:04.160Z,5
2018-12-25T06:40:02.454Z,7.2
2018-12-25T06:41:02.960Z,6.1
2018-12-25T06:42:03.736Z,6.1
2018-12-25T06:43:03.604Z,7.2
2018-12-25T06:44:03.271Z,6.1
2018-12-25T06:45:03.453Z,6.1
2018-12-25T06:46:03.296Z,6.1
2018-12-25T06:47:03.881Z,5
2018-12-25T06:48:03.283Z,6.1
2018-12-25T06:49:03.095Z,5
2018-12-25T06:50:03.738Z,6.1
2018-12-25T06:51:04.570Z,6.1
2018-12-25T06:52:03.129Z,5
2018-12-25T06:53:03.473Z,3.6
2018-12-25T06:54:03.135Z,5
2018-12-25T06:55:03.629Z,5
2018-12-25T06:56:03.808Z,5
2018-12-25T06:57:03.692Z,5
2018-12-25T06:58:03.446Z,3.6
2018-12-25T06:59:03.395Z,5
2018-12-25T07:00:03.165Z,3.6
2018-12-25T07:01:03.403Z,2.5
2018-12-25T07:02:03.461Z,2.5
2018-12-25T07:03:03.672Z,2.5
2018-12-25T07:04:03.157Z,2.5
2018-12-25T07:05:03.837Z,2.5
2018-12-25T07:06:03.741Z,2.5
2018-12-25T07:07:03.894Z,2.5
2018-12-25T07:08:03.771Z,2.5
2018-12-25T07:09:03.295Z,3.6
2018-12-25T07:10:03.485Z,1.1
2018-12-25T07:11:03.531Z,3.6
2018-12-25T07:12:03.799Z,3.6
2018-12-25T07:13:03.413Z,3.6
2018-12-25T07:14:03.603Z,6.1
2018-12-25T07:15:03.101Z,5
2018-12-25T07:16:03.758Z,6.1
2018-12-25T07:17:03.310Z,6.1
2018-12-25T07:18:03.661Z,5
2018-12-25T07:19:03.221Z,5
2018-12-25T07:20:03.562Z,5
2018-12-25T07:21:03.008Z,5
2018-12-25T07:22:03.371Z,3.6
2018-12-25T07:23:03.622Z,5
2018-12-25T07:24:03.534Z,5
2018-12-25T07:25:03.212Z,2.5
2018-12-25T07:26:03.725Z,5
2018-12-25T07:27:03.258Z,5
2018-12-25T07:28:03.500Z,2.5
2018-12-25T07:29:03.163Z,2.5
2018-12-25T07:30:03.794Z,5
2018-12-25T07:31:03.362Z,3.6
2018-12-25T07:32:03.857Z,5
2018-12-25T07:33:03.149Z,2.5
2018-12-25T07:34:03.046Z,2.5
2018-12-25T07:35:04.042Z,5
2018-12-25T07:36:03.560Z,5
2018-12-25T07:37:03.661Z,6.1
2018-12-25T07:38:03.780Z,3.6
2018-12-25T07:39:03.186Z,5
2018-12-25T07:40:03.096Z,5
2018-12-25T07:41:03.982Z,6.1
2018-12-25T07:42:03.000Z,5
2018-12-25T07:43:03.540Z,6.1
2018-12-25T07:44:03.260Z,5
2018-12-25T07:45:03.869Z,7.2
2018-12-25T07:46:03.334Z,5
2018-12-25T07:47:03.004Z,6.1
2018-12-25T07:48:03.823Z,5
2018-12-25T07:49:03.095Z,5
2018-12-25T07:50:03.043Z,6.1
2018-12-25T07:51:03.683Z,6.1
2018-12-25T07:52:03.715Z,5
2018-12-25T07:53:03.683Z,6.1
2018-12-25T07:54:03.276Z,5
2018-12-25T07:55:03.241Z,5
2018-12-25T07:56:03.370Z,5
2018-12-25T07:57:03.394Z,5
2018-12-25T07:58:03.627Z,5
2018-12-25T07:59:03.233Z,5
2018-12-25T08:00:03.543Z,5
2018-12-25T08:01:03.332Z,5
2018-12-25T08:02:03.574Z,5
2018-12-25T08:03:03.951Z,3.6
2018-12-25T08:04:03.681Z,3.6
2018-12-25T08:05:03.522Z,5
2018-12-25T08:06:03.458Z,5
2018-12-25T08:07:03.133Z,3.6
2018-12-25T08:08:03.085Z,3.6
2018-12-25T08:09:03.083Z,2.5
2018-12-25T08:10:03.934Z,3.6
2018-12-25T08:11:03.446Z,3.6
2018-12-25T08:12:03.579Z,6.1
2018-12-25T08:13:03.627Z,6.1
2018-12-25T08:14:03.151Z,7.2
2018-12-25T08:15:03.882Z,7.2
2018-12-25T08:16:03.956Z,7.2
2018-12-25T08:17:03.727Z,7.2
2018-12-25T08:18:03.553Z,6.1
2018-12-25T08:19:03.594Z,7.2
2018-12-25T08:20:03.853Z,6.1
2018-12-25T08:21:03.046Z,6.1
2018-12-25T08:22:03.042Z,7.2
2018-12-25T08:23:03.262Z,6.1
2018-12-25T08:24:03.655Z,6.1
2018-12-25T08:25:03.455Z,5
2018-12-25T08:26:03.444Z,6.1
2018-12-25T08:27:03.397Z,5
2018-12-25T08:28:03.253Z,5
2018-12-25T08:29:04.644Z,6.1
2018-12-25T08:30:03.420Z,5
2018-12-25T08:31:03.631Z,6.1
2018-12-25T08:32:03.377Z,6.1
2018-12-25T08:33:03.840Z,5
2018-12-25T08:34:03.361Z,5
2018-12-25T08:35:03.768Z,5
2018-12-25T08:36:02.976Z,3.6
2018-12-25T08:37:03.119Z,6.1
2018-12-25T08:38:03.257Z,6.1
2018-12-25T08:39:03.241Z,6.1
2018-12-25T08:40:04.347Z,3.6
2018-12-25T08:41:03.578Z,6.1
2018-12-25T08:42:03.119Z,5
2018-12-25T08:43:03.581Z,5
2018-12-25T08:44:03.272Z,5
2018-12-25T08:45:03.511Z,3.6
2018-12-25T08:46:03.942Z,3.6
2018-12-25T08:47:03.780Z,3.6
2018-12-25T08:48:03.098Z,3.6
2018-12-25T08:49:03.236Z,3.6
2018-12-25T08:50:03.064Z,3.6
2018-12-25T08:51:03.702Z,3.6
2018-12-25T08:52:03.658Z,3.6
2018-12-25T08:53:03.596Z,3.6
2018-12-25T08:54:03.346Z,6.1
2018-12-25T08:55:03.614Z,6.1
2018-12-25T08:56:03.430Z,6.1
2018-12-25T08:57:04.014Z,5
2018-12-25T08:58:03.210Z,6.1
2018-12-25T08:59:03.188Z,6.1
2018-12-25T09:00:03.771Z,6.1
2018-12-25T09:01:03.234Z,6.1
2018-12-25T09:02:03.220Z,6.1
2018-12-25T09:03:03.510Z,6.1
2018-12-25T09:04:03.904Z,6.1
2018-12-25T09:05:03.003Z,6.1
2018-12-25T09:06:04.038Z,6.1
2018-12-25T09:07:04.759Z,6.1
2018-12-25T09:08:03.119Z,6.1
2018-12-25T09:09:03.554Z,6.1
2018-12-25T09:10:03.979Z,6.1
2018-12-25T09:11:03.119Z,6.1
2018-12-25T09:12:02.965Z,6.1
2018-12-25T09:13:05.144Z,6.1
2018-12-25T09:14:03.994Z,6.1
2018-12-25T09:15:03.392Z,6.1
2018-12-25T09:16:03.539Z,6.1
2018-12-25T09:17:03.316Z,6.1
2018-12-25T09:18:03.454Z,6.1
2018-12-25T09:19:03.895Z,6.1
2018-12-25T09:20:03.868Z,6.1
2018-12-25T09:21:03.475Z,6.1
2018-12-25T09:22:03.870Z,6.1
2018-12-25T09:23:03.926Z,6.1
2018-12-25T09:24:03.430Z,6.1
2018-12-25T09:25:03.997Z,6.1
2018-12-25T09:26:03.902Z,6.1
2018-12-25T09:27:03.509Z,6.1
2018-12-25T09:28:03.568Z,6.1
2018-12-25T09:29:03.530Z,6.1
2018-12-25T09:30:04.029Z,6.1
2018-12-25T09:31:02.952Z,6.1
2018-12-25T09:32:03.406Z,6.1
2018-12-25T09:33:05.802Z,6.1
2018-12-25T09:34:03.597Z,6.1
2018-12-25T09:35:03.438Z,6.1
2018-12-25T09:36:03.049Z,6.1
2018-12-25T09:37:03.111Z,6.1
2018-12-25T09:38:02.977Z,6.1
2018-12-25T09:39:03.817Z,6.1
2018-12-25T09:40:03.123Z,6.1
2018-12-25T09:41:03.434Z,6.1
2018-12-25T09:42:02.977Z,6.1
2018-12-25T09:43:03.242Z,6.1
2018-12-25T09:44:03.808Z,6.1
2018-12-25T09:45:03.441Z,6.1
2018-12-25T09:46:03.151Z,6.1
2018-12-25T09:47:03.322Z,6.1
2018-12-25T09:48:03.512Z,6.1
2018-12-25T09:49:03.360Z,6.1
2018-12-25T09:50:03.953Z,6.1
2018-12-25T09:51:03.927Z,6.1
2018-12-25T09:52:03.742Z,6.1
2018-12-25T09:53:03.099Z,6.1
2018-12-25T09:54:03.073Z,6.1
2018-12-25T09:55:03.344Z,6.1
2018-12-25T09:56:03.727Z,6.1
2018-12-25T09:57:03.144Z,6.1
2018-12-25T09:58:03.704Z,6.1
2018-12-25T09:59:03.474Z,6.1
2018-12-25T10:00:03.457Z,6.1
2018-12-25T10:01:02.937Z,9.7
2018-12-25T10:02:03.451Z,7.2
2018-12-25T10:03:03.786Z,7.2
2018-12-25T10:04:02.989Z,5
2018-12-25T10:05:03.411Z,8.6
2018-12-25T10:06:03.680Z,9.7
2018-12-25T10:07:03.240Z,9.7
2018-12-25T10:08:03.993Z,9.7
2018-12-25T10:09:03.658Z,7.2
2018-12-25T10:10:03.224Z,8.6
2018-12-25T10:11:03.801Z,8.6
2018-12-25T10:12:03.198Z,7.2
2018-12-25T10:13:03.785Z,11.2
2018-12-25T10:14:03.102Z,9.7
2018-12-25T10:15:03.996Z,8.6
2018-12-25T10:16:02.956Z,8.6
2018-12-25T10:17:03.545Z,7.2
2018-12-25T10:18:02.925Z,7.2
2018-12-25T10:19:03.021Z,11.2
2018-12-25T10:20:03.361Z,11.2
2018-12-25T10:21:03.262Z,11.2
2018-12-25T10:22:05.563Z,11.2
2018-12-25T10:23:03.313Z,9.7
2018-12-25T10:24:03.799Z,9.7
2018-12-25T10:25:03.623Z,11.2
2018-12-25T10:26:03.932Z,11.2
2018-12-25T10:27:03.408Z,11.2
2018-12-25T10:28:03.675Z,11.2
2018-12-25T10:29:02.974Z,11.2
2018-12-25T10:30:03.151Z,14.8
2018-12-25T10:31:03.334Z,11.2
2018-12-25T10:32:05.046Z,8.6
2018-12-25T10:33:03.658Z,11.2
2018-12-25T10:34:03.549Z,11.2
2018-12-25T10:35:03.151Z,11.2
2018-12-25T10:36:03.686Z,9.7
2018-12-25T10:37:02.925Z,9.7
2018-12-25T10:38:03.351Z,12.2
2018-12-25T10:39:03.268Z,11.2
2018-12-25T10:40:06.806Z,12.2
2018-12-25T10:41:03.305Z,9.7
2018-12-25T10:42:04.215Z,12.2
2018-12-25T10:43:03.444Z,14.8
2018-12-25T10:44:03.382Z,12.2
2018-12-25T10:45:02.920Z,15.8
2018-12-25T10:46:03.837Z,11.2
2018-12-25T10:47:02.827Z,12.2
2018-12-25T10:48:03.332Z,12.2
2018-12-25T10:49:03.122Z,12.2
2018-12-25T10:50:03.562Z,11.2
2018-12-25T10:51:02.984Z,12.2
2018-12-25T10:52:12.308Z,12.2
2018-12-25T10:53:02.980Z,13.3
2018-12-25T10:54:03.238Z,12.2
2018-12-25T10:55:03.899Z,11.2
2018-12-25T10:56:03.125Z,11.2
2018-12-25T10:57:04.257Z,13.3
2018-12-25T10:58:04.938Z,11.2
2018-12-25T10:59:03.976Z,13.3
2018-12-25T11:00:03.572Z,9.7
2018-12-25T11:01:03.356Z,11.2
2018-12-25T11:02:04.019Z,11.2
2018-12-25T11:03:03.035Z,11.2
2018-12-25T11:04:03.105Z,11.2
2018-12-25T11:05:03.126Z,11.2
2018-12-25T11:06:04.539Z,11.2
2018-12-25T11:07:03.275Z,11.2
2018-12-25T11:08:03.686Z,11.2
2018-12-25T11:09:03.896Z,9.7
2018-12-25T11:10:03.927Z,9.7
2018-12-25T11:11:03.502Z,11.2
2018-12-25T11:12:03.653Z,9.7
2018-12-25T11:13:03.739Z,11.2
2018-12-25T11:14:03.709Z,12.2
2018-12-25T11:15:03.126Z,9.7
2018-12-25T11:16:03.571Z,11.2
2018-12-25T11:17:03.413Z,11.2
2018-12-25T11:18:03.352Z,9.7
2018-12-25T11:19:03.290Z,11.2
2018-12-25T11:20:12.066Z,11.2
2018-12-25T11:21:03.388Z,13.3
2018-12-25T11:22:06.249Z,11.2
2018-12-25T11:23:03.256Z,12.2
2018-12-25T11:24:03.350Z,9.7
2018-12-25T11:25:03.770Z,11.2
2018-12-25T11:26:03.419Z,12.2
2018-12-25T11:27:03.490Z,12.2
2018-12-25T11:28:03.029Z,11.2
2018-12-25T11:29:03.320Z,11.2
2018-12-25T11:30:03.410Z,13.3
2018-12-25T11:31:03.405Z,11.2
2018-12-25T11:32:03.183Z,11.2
2018-12-25T11:33:03.197Z,12.2
2018-12-25T11:34:03.118Z,14.8
2018-12-25T11:35:03.845Z,12.2
2018-12-25T11:36:03.003Z,12.2
2018-12-25T11:37:03.649Z,9.7
2018-12-25T11:38:03.373Z,15.8
2018-12-25T11:39:03.610Z,13.3
2018-12-25T11:40:03.977Z,12.2
2018-12-25T11:41:03.430Z,11.2
2018-12-25T11:42:03.355Z,12.2
2018-12-25T11:43:03.115Z,11.2
2018-12-25T11:44:03.008Z,11.2
2018-12-25T11:45:03.764Z,9.7
2018-12-25T11:46:03.594Z,7.2
2018-12-25T11:47:03.580Z,9.7
2018-12-25T11:48:03.430Z,8.6
2018-12-25T11:49:03.226Z,8.6
2018-12-25T11:50:03.131Z,11.2
2018-12-25T11:51:03.163Z,11.2
2018-12-25T11:52:03.032Z,9.7
2018-12-25T11:53:04.066Z,9.7
2018-12-25T11:54:03.536Z,8.6
2018-12-25T11:55:03.316Z,9.7
2018-12-25T11:56:03.280Z,8.6
2018-12-25T11:57:03.147Z,7.2
2018-12-25T11:58:03.203Z,8.6
2018-12-25T11:59:03.778Z,8.6
2018-12-25T12:00:03.333Z,8.6
2018-12-25T12:01:03.911Z,8.6
2018-12-25T12:02:03.598Z,9.7
2018-12-25T12:03:03.186Z,8.6
2018-12-25T12:04:03.509Z,7.2
2018-12-25T12:05:04.025Z,6.1
2018-12-25T12:06:03.618Z,6.1
2018-12-25T12:07:03.319Z,6.1
2018-12-25T12:08:03.362Z,6.1
2018-12-25T12:09:03.293Z,8.6
2018-12-25T12:10:03.729Z,7.2
2018-12-25T12:11:03.453Z,7.2
2018-12-25T12:12:03.716Z,9.7
2018-12-25T12:13:03.412Z,8.6
2018-12-25T12:14:03.437Z,8.6
2018-12-25T12:15:03.543Z,8.6
2018-12-25T12:16:03.933Z,8.6
2018-12-25T12:17:03.632Z,8.6
2018-12-25T12:18:03.855Z,7.2
2018-12-25T12:19:03.885Z,8.6
2018-12-25T12:20:03.547Z,8.6
2018-12-25T12:21:03.245Z,7.2
2018-12-25T12:22:03.367Z,7.2
2018-12-25T12:23:03.953Z,7.2
2018-12-25T12:24:03.125Z,7.2
2018-12-25T12:25:03.680Z,8.6
2018-12-25T12:26:03.743Z,8.6
2018-12-25T12:27:03.295Z,8.6
2018-12-25T12:28:03.620Z,7.2
2018-12-25T12:29:03.282Z,7.2
2018-12-25T12:30:03.773Z,6.1
2018-12-25T12:31:03.244Z,8.6
2018-12-25T12:32:03.526Z,8.6
2018-12-25T12:33:03.160Z,8.6
2018-12-25T12:34:03.265Z,8.6
2018-12-25T12:35:03.487Z,8.6
2018-12-25T12:36:03.058Z,9.7
2018-12-25T12:37:03.086Z,9.7
2018-12-25T12:38:04.147Z,8.6
2018-12-25T12:39:03.371Z,8.6
2018-12-25T12:40:04.181Z,7.2
2018-12-25T12:41:03.086Z,7.2
2018-12-25T12:42:03.447Z,7.2
2018-12-25T12:43:03.244Z,7.2
2018-12-25T12:44:03.760Z,6.1
2018-12-25T12:45:04.243Z,7.2
2018-12-25T12:46:03.793Z,7.2
2018-12-25T12:47:03.290Z,6.1
2018-12-25T12:48:03.724Z,6.1
2018-12-25T12:49:03.688Z,7.2
2018-12-25T12:50:03.409Z,8.6
2018-12-25T12:51:03.676Z,8.6
2018-12-25T12:52:03.262Z,7.2
2018-12-25T12:53:03.652Z,8.6
2018-12-25T12:54:03.852Z,9.7
2018-12-25T12:55:03.482Z,8.6
2018-12-25T12:56:03.303Z,8.6
2018-12-25T12:57:03.521Z,9.7
2018-12-25T12:58:03.347Z,9.7
2018-12-25T12:59:03.397Z,9.7
2018-12-25T13:00:03.182Z,7.2
2018-12-25T13:01:03.464Z,8.6
2018-12-25T13:02:03.710Z,8.6
2018-12-25T13:03:04.029Z,8.6
2018-12-25T13:04:03.709Z,8.6
2018-12-25T13:05:03.771Z,8.6
2018-12-25T13:06:03.766Z,8.6
2018-12-25T13:07:03.809Z,8.6
2018-12-25T13:08:03.222Z,8.6
2018-12-25T13:09:03.709Z,8.6
2018-12-25T13:10:03.384Z,9.7
2018-12-25T13:11:03.385Z,8.6
2018-12-25T13:12:03.603Z,9.7
2018-12-25T13:13:03.906Z,9.7
2018-12-25T13:14:03.462Z,8.6
2018-12-25T13:15:03.624Z,11.2
2018-12-25T13:16:03.051Z,12.2
2018-12-25T13:17:03.756Z,11.2
2018-12-25T13:18:03.378Z,13.3
2018-12-25T13:19:03.152Z,11.2
2018-12-25T13:20:03.385Z,9.7
2018-12-25T13:21:04.767Z,11.2
2018-12-25T13:22:03.566Z,9.7
2018-12-25T13:23:03.808Z,9.7
2018-12-25T13:24:02.980Z,8.6
2018-12-25T13:25:03.159Z,9.7
2018-12-25T13:26:03.554Z,12.2
2018-12-25T13:27:03.956Z,11.2
2018-12-25T13:28:03.654Z,9.7
2018-12-25T13:29:03.218Z,12.2
2018-12-25T13:30:03.134Z,11.2
2018-12-25T13:31:03.230Z,12.2
2018-12-25T13:32:03.190Z,11.2
2018-12-25T13:33:03.724Z,11.2
2018-12-25T13:34:03.466Z,11.2
2018-12-25T13:35:03.039Z,11.2
2018-12-25T13:36:03.703Z,13.3
2018-12-25T13:37:03.166Z,11.2
2018-12-25T13:38:03.460Z,11.2
2018-12-25T13:39:03.307Z,12.2
2018-12-25T13:40:03.456Z,12.2
2018-12-25T13:41:04.149Z,12.2
2018-12-25T13:42:03.493Z,11.2
2018-12-25T13:43:02.935Z,11.2
2018-12-25T13:44:03.289Z,12.2
2018-12-25T13:45:03.878Z,11.2
2018-12-25T13:46:03.738Z,12.2
2018-12-25T13:47:03.851Z,11.2
2018-12-25T13:48:03.272Z,11.2
2018-12-25T13:49:04.002Z,12.2
2018-12-25T13:50:03.775Z,12.2